• Join FlightAware (Why Join?)
  • Login
  • US Flag 
Trick or treat! (Boo!!) 
06:23PM EDT


 

Airport Tracker/Info


-or-


 

Live Flight TrackerFlight Track Log ✈ SWA1086 ✈ 23 de Apr de 2013 ✈ KOKC - KMCI

Flight Track Log - Related Links

Times and Time Zones

All times are in EDT time to prevent confusion due to time zone crossing. See the SWA1086 flight status page for this flight to view local times or setup timezone preferences in your user account.

Time Position Orientation Groundspeed Altitude Reporting Facility
EDT Latitude Longitude Course Direction KTS MPH feet Rate Location/Type
11:05AM 35.4081 -97.6225 15° North 144 166 2,100  Level Fort Worth Center
11:06AM 35.4603 -97.6047 15° North 199 229 4,600 2,400 Climbing Fort Worth Center
11:08AM 35.6289 -97.5964 North 286 329 10,300 2,760 Climbing Kansas City Center
11:09AM 35.7303 -97.5636 15° North 365 420 13,400 3,120 Climbing Kansas City Center
11:10AM 35.8261 -97.5114 24° Northeast 373 429 16,700 2,940 Climbing Kansas City Center
11:11AM 35.9244 -97.4583 24° Northeast 379 436 19,500 2,460 Climbing Kansas City Center
11:12AM 36.0261 -97.4036 24° Northeast 392 451 21,900 2,340 Climbing Kansas City Center
11:13AM 36.1325 -97.3442 24° Northeast 405 466 24,400 2,340 Climbing Kansas City Center
11:14AM 36.2389 -97.2864 24° Northeast 415 478 26,800 2,040 Climbing Kansas City Center
11:15AM 36.3717 -97.2156 23° Northeast 430 495 28,700 1,800 Climbing Kansas City Center
11:16AM 36.4858 -97.1522 24° Northeast 443 510 30,500 1,140 Climbing Kansas City Center
11:17AM 36.6025 -97.0881 24° Northeast 454 522 31,000 240 Climbing Kansas City Center
11:19AM 36.7244 -97.0214 24° Northeast 461 531 31,000  Level Kansas City Center
11:20AM 36.8422 -96.9575 23° Northeast 460 529 31,000  Level Kansas City Center
11:21AM 36.9564 -96.8933 24° Northeast 460 529 31,000  Level Kansas City Center
11:22AM 37.0753 -96.8278 24° Northeast 466 536 31,000  Level Kansas City Center
11:23AM 37.1933 -96.7617 24° Northeast 466 536 31,000  Level Kansas City Center
11:24AM 37.3342 -96.6831 24° Northeast 465 535 31,000  Level Kansas City Center
11:26AM 37.5708 -96.5494 24° Northeast 467 537 31,000 -180 Level Kansas City Center
11:27AM 37.6900 -96.4828 24° Northeast 469 540 30,500 -720 Descending Kansas City Center
11:28AM 37.8081 -96.4158 24° Northeast 468 539 29,500 -1,020 Descending Kansas City Center
11:29AM 37.9244 -96.3500 24° Northeast 460 529 28,500 -1,020 Descending Kansas City Center
11:30AM 38.0375 -96.2842 25° Northeast 451 519 27,500 -1,080 Descending Kansas City Center
11:31AM 38.1728 -96.2072 24° Northeast 445 512 26,300 -1,140 Descending Kansas City Center
11:32AM 38.2808 -96.1419 25° Northeast 437 503 25,300 -1,200 Descending Kansas City Center
11:33AM 38.3669 -96.0369 44° Northeast 445 512 23,900 -1,860 Descending Kansas City Center
11:34AM 38.4567 -95.9092 48° Northeast 436 502 21,500 -2,160 Descending Kansas City Center
11:35AM 38.5333 -95.8019 48° Northeast 429 494 19,500 -2,040 Descending Kansas City Center
11:36AM 38.6203 -95.6822 47° Northeast 413 475 17,400 -2,100 Descending Kansas City Center
11:37AM 38.6944 -95.5775 48° Northeast 415 478 15,200 -2,040 Descending Kansas City Center
11:38AM 38.7756 -95.4619 48° Northeast 388 447 13,200 -2,100 Descending Kansas City Center
11:39AM 38.8389 -95.3742 47° Northeast 353 406 10,900 -1,620 Descending Kansas City Center
11:40AM 38.8978 -95.2917 47° Northeast 329 379 9,900 -1,260 Descending Kansas City Center
11:41AM 38.9431 -95.1992 58° Northeast 277 319 8,400 -1,380 Descending Kansas City Center
11:42AM 38.9764 -95.1192 62° Northeast 268 308 7,200 -1,080 Descending Kansas City Center
11:43AM 39.0100 -95.0289 64° Northeast 251 289 6,200 -600 Descending Kansas City Center
11:44AM 39.0356 -94.9606 64° Northeast 224 258 6,000 -420 Descending Kansas City Center
11:45AM 39.0653 -94.8806 64° Northeast 223 257 5,400 -720 Descending Kansas City Center
11:46AM 39.0956 -94.8222 56° Northeast 199 229 4,600 -600 Descending Kansas City Center
11:47AM 39.1344 -94.7781 41° Northeast 167 192 4,200 -540 Descending Kansas City Center
11:48AM 39.1764 -94.7636 15° North 162 186 3,600 -780 Descending Kansas City Center
11:49AM 39.2189 -94.7517 12° North 143 165 2,700 -780 Descending Kansas City Center
11:50AM 39.2503 -94.7419 13° North 119 137 2,000 -720 Descending Kansas City Center
11:51AM 39.2836 -94.7322 13° North 111 128 1,300 -540 Descending Kansas City Center
11:52AM 39.3081 -94.7239 15° North 110 127 1,000 -300 Descending Kansas City Center
11:54AM 39.2976 -94.7139 67° East  Level Estimated